Time;durP1;ratioP1;P1;durP2;ratioP2;P2;SDS_P1;SDS_P2;PMS_P1;PMS_P2;Temp;Humidity;BMP_temperature;BMP_pressure;BME280_temperature;BME280_humidity;BME280_pressure;Samples;Min_cycle;Max_cycle;Signal;HPM_P1;HPM_P2
2021/03/28 00:00:22;;;;;;;53.87;29.95;;;;;;;6.42;60.68;99828.06;1855117;77;21261;-63
2021/03/28 00:03:00;;;;;;;47.30;29.25;;;;;;;6.40;60.48;99824.55;1855037;77;21161;-63
2021/03/28 00:05:35;;;;;;;50.25;29.70;;;;;;;6.39;60.39;99816.41;1782560;80;21296;-62
2021/03/28 00:08:22;;;;;;;55.05;32.23;;;;;;;6.37;60.53;99825.30;1854743;77;21115;-62
2021/03/28 00:10:55;;;;;;;50.52;32.25;;;;;;;6.38;60.43;99817.20;1854643;77;21122;-64
2021/03/28 00:13:29;;;;;;;51.33;30.37;;;;;;;6.38;60.55;99818.48;1851931;77;21149;-62
2021/03/28 00:16:02;;;;;;;53.78;33.33;;;;;;;6.36;60.63;99820.09;1752501;80;21127;-63
2021/03/28 00:18:56;;;;;;;57.88;33.00;;;;;;;6.34;60.77;99820.47;1851264;77;21602;-63
2021/03/28 00:21:31;;;;;;;63.05;34.75;;;;;;;6.32;60.80;99822.95;1854786;77;21114;-62
2021/03/28 00:24:23;;;;;;;55.75;33.35;;;;;;;6.34;60.70;99819.19;1782718;80;21153;-62
2021/03/28 00:27:22;;;;;;;63.47;34.20;;;;;;;6.35;60.70;99818.36;1853520;77;21126;-61
2021/03/28 00:30:03;;;;;;;56.88;32.75;;;;;;;6.34;60.85;99820.47;1855222;77;21130;-62
2021/03/28 00:32:54;;;;;;;58.15;33.95;;;;;;;6.32;60.78;99824.23;1782451;80;21157;-62
2021/03/28 00:35:27;;;;;;;59.55;33.88;;;;;;;6.31;60.76;99818.65;1847816;77;21288;-63
2021/03/28 00:38:22;;;;;;;55.25;33.65;;;;;;;6.30;60.76;99818.16;1774526;80;21704;-62
2021/03/28 00:41:22;;;;;;;59.77;35.35;;;;;;;6.29;60.84;99814.73;1846017;77;21248;-62
2021/03/28 00:44:12;;;;;;;54.98;32.20;;;;;;;6.28;60.94;99816.83;1774368;81;21143;-61
2021/03/28 00:47:00;;;;;;;52.43;31.20;;;;;;;6.26;60.93;99813.33;1846209;78;21283;-62
2021/03/28 00:49:33;;;;;;;55.63;32.85;;;;;;;6.27;60.70;99818.91;1845923;78;21285;-64
2021/03/28 00:52:11;;;;;;;54.42;32.95;;;;;;;6.29;60.45;99821.14;1774331;81;21151;-64
2021/03/28 00:54:47;;;;;;;50.65;31.12;;;;;;;6.29;60.33;99821.14;1840768;77;21273;-63
2021/03/28 00:57:21;;;;;;;49.40;29.12;;;;;;;6.32;60.31;99823.36;1774702;80;21158;-63
2021/03/28 00:59:57;;;;;;;50.10;28.23;;;;;;;6.32;60.16;99825.92;1822413;78;21107;-61
2021/03/28 01:02:44;;;;;;;56.10;31.45;;;;;;;6.32;59.96;99824.23;1845600;77;21142;-61
2021/03/28 01:05:32;;;;;;;49.35;29.20;;;;;;;6.32;59.97;99825.92;1844932;77;21281;-61
2021/03/28 01:08:09;;;;;;;47.40;27.35;;;;;;;6.32;59.97;99819.11;1846213;78;21260;-63
2021/03/28 01:10:44;;;;;;;50.60;27.62;;;;;;;6.33;59.83;99819.97;1845840;77;21111;-61
2021/03/28 01:13:37;;;;;;;45.08;26.97;;;;;;;6.34;59.78;99817.91;1774422;81;21145;-63
2021/03/28 01:16:40;;;;;;;51.13;30.65;;;;;;;6.35;59.65;99827.33;1845852;78;21192;-63
2021/03/28 01:19:38;;;;;;;48.10;28.30;;;;;;;6.36;59.64;99825.22;1781760;78;21534;-62
2021/03/28 01:22:11;;;;;;;53.55;30.17;;;;;;;6.35;59.73;99824.35;1846190;77;21256;-60
2021/03/28 01:24:51;;;;;;;58.20;32.93;;;;;;;6.34;60.05;99828.16;1845830;77;21126;-61
2021/03/28 01:27:26;;;;;;;58.28;33.35;;;;;;;6.30;60.41;99833.13;1773257;77;21126;-61
2021/03/28 01:30:09;;;;;;;65.05;37.15;;;;;;;6.26;60.67;99830.40;1774606;81;21285;-60
2021/03/28 01:32:48;;;;;;;63.98;36.20;;;;;;;6.22;60.95;99825.94;1845839;77;21296;-62
2021/03/28 01:35:24;;;;;;;68.02;38.28;;;;;;;6.15;61.19;99835.05;1774356;81;21292;-61
2021/03/28 01:38:09;;;;;;;64.35;38.95;;;;;;;6.08;61.45;99831.74;1845497;77;21138;-63
2021/03/28 01:40:48;;;;;;;72.42;38.45;;;;;;;6.05;61.64;99836.33;1774590;81;21143;-62
2021/03/28 01:43:42;;;;;;;67.80;40.17;;;;;;;6.03;61.76;99834.52;1846048;78;21269;-61
2021/03/28 01:46:31;;;;;;;67.50;40.73;;;;;;;5.99;61.84;99833.93;1773933;81;21257;-61
2021/03/28 01:49:14;;;;;;;71.10;39.85;;;;;;;5.98;61.94;99835.63;1845815;77;21131;-61
2021/03/28 01:52:08;;;;;;;68.45;39.25;;;;;;;5.97;61.97;99838.11;1723475;81;21119;-61
2021/03/28 01:54:57;;;;;;;68.10;39.25;;;;;;;5.92;62.04;99837.00;1845893;77;21127;-62
2021/03/28 01:57:46;;;;;;;69.80;39.18;;;;;;;5.91;62.08;99837.82;1845805;77;21103;-62
2021/03/28 02:00:58;;;;;;;69.53;39.15;;;;;;;5.91;61.93;99830.14;1774284;81;21269;-62
2021/03/28 02:03:43;;;;;;;64.05;37.67;;;;;;;5.91;61.90;99833.57;1846439;77;21276;-62
2021/03/28 02:06:42;;;;;;;66.45;36.00;;;;;;;5.90;61.95;99838.20;1845980;78;21135;-63
2021/03/28 02:09:27;;;;;;;58.52;34.05;;;;;;;5.90;61.92;99839.89;1774571;80;21135;-62
2021/03/28 02:12:16;;;;;;;60.25;34.33;;;;;;;5.88;61.92;99838.16;1845874;77;21202;-61
2021/03/28 02:15:06;;;;;;;68.65;35.00;;;;;;;5.89;61.82;99837.74;1774512;80;21171;-63
2021/03/28 02:18:02;;;;;;;70.75;39.95;;;;;;;5.92;61.79;99837.00;1845983;78;21119;-62
2021/03/28 02:20:57;;;;;;;55.88;34.15;;;;;;;5.90;61.84;99827.08;1846013;77;21273;-62
2021/03/28 02:23:46;;;;;;;59.00;33.23;;;;;;;5.88;61.68;99835.59;1774293;80;21162;-62
2021/03/28 02:26:41;;;;;;;57.65;32.30;;;;;;;5.88;61.56;99838.56;1845395;77;21154;-62
2021/03/28 02:29:23;;;;;;;57.78;31.95;;;;;;;5.92;61.50;99830.59;1870745;76;22543;-62
2021/03/28 02:32:25;;;;;;;61.33;32.58;;;;;;;5.85;61.49;99829.06;1827627;78;21249;-62
2021/03/28 02:35:16;;;;;;;53.02;31.65;;;;;;;5.83;61.52;99834.52;1828006;77;21265;-61
2021/03/28 02:38:23;;;;;;;52.62;29.92;;;;;;;5.83;61.51;99840.05;1827681;78;21119;-61
2021/03/28 02:41:07;;;;;;;50.38;30.40;;;;;;;5.83;61.37;99834.52;1827589;77;21130;-62
2021/03/28 02:43:49;;;;;;;50.60;30.70;;;;;;;5.83;61.27;99829.39;1827817;78;21233;-62
2021/03/28 02:46:40;;;;;;;47.43;29.20;;;;;;;5.83;61.19;99831.95;1827860;78;21239;-61
2021/03/28 02:49:38;;;;;;;54.00;31.02;;;;;;;5.84;61.09;99829.85;1827902;78;21099;-62
2021/03/28 02:52:29;;;;;;;55.12;30.32;;;;;;;5.86;61.03;99828.65;1826951;77;21134;-61
2021/03/28 02:55:46;;;;;;;58.60;31.63;;;;;;;5.85;60.98;99827.78;1828029;77;21161;-60
2021/03/28 02:58:50;;;;;;;50.08;27.87;;;;;;;5.85;60.88;99826.50;1827460;78;21118;-62
2021/03/28 03:01:47;;;;;;;50.12;28.55;;;;;;;5.84;60.79;99820.89;1827906;77;21122;-60
2021/03/28 03:04:39;;;;;;;50.65;30.17;;;;;;;5.86;60.62;99825.67;1826490;77;21287;-61
2021/03/28 03:07:15;;;;;;;51.73;29.92;;;;;;;5.85;60.48;99823.03;1827805;78;21118;-61
2021/03/28 03:10:00;;;;;;;51.55;28.57;;;;;;;5.86;60.31;99821.83;1827588;77;21292;-62
2021/03/28 03:13:04;;;;;;;52.25;29.18;;;;;;;5.87;60.30;99828.70;1827678;77;21146;-62
2021/03/28 03:15:52;;;;;;;52.33;30.02;;;;;;;5.86;60.20;99825.67;1827875;78;21265;-61
2021/03/28 03:18:37;;;;;;;51.42;28.15;;;;;;;5.88;60.25;99835.59;1827942;78;21129;-62
2021/03/28 03:21:28;;;;;;;46.42;28.07;;;;;;;5.88;60.16;99827.04;1827535;78;21285;-62
2021/03/28 03:24:37;;;;;;;46.45;27.35;;;;;;;5.88;60.09;99833.03;1827546;78;21150;-62
2021/03/28 03:27:43;;;;;;;46.90;27.62;;;;;;;5.88;60.01;99830.47;1822035;78;21138;-61
2021/03/28 03:30:32;;;;;;;47.93;27.82;;;;;;;5.90;59.83;99838.61;1827890;78;21142;-61
2021/03/28 03:33:33;;;;;;;49.27;28.27;;;;;;;5.91;59.73;99838.69;1827811;78;21296;-61
2021/03/28 03:36:15;;;;;;;45.10;26.37;;;;;;;5.92;59.62;99834.02;1826874;78;21169;-62
2021/03/28 03:39:28;;;;;;;43.08;26.30;;;;;;;5.93;59.49;99834.52;1777684;78;21276;-61
2021/03/28 03:42:41;;;;;;;46.92;26.35;;;;;;;5.94;59.34;99831.58;1827252;78;21279;-60
2021/03/28 03:45:20;;;;;;;42.75;26.12;;;;;;;5.97;59.14;99829.14;1827272;78;21134;-60
2021/03/28 03:48:15;;;;;;;43.13;26.00;;;;;;;5.99;58.84;99830.09;1826899;78;21140;-62
2021/03/28 03:51:14;;;;;;;47.65;26.97;;;;;;;6.02;58.64;99833.64;1826972;78;21292;-62
2021/03/28 03:54:08;;;;;;;49.10;26.30;;;;;;;6.06;58.45;99829.55;1812259;78;21130;-62
2021/03/28 03:56:53;;;;;;;40.75;22.98;;;;;;;6.10;58.14;99830.12;1826942;77;21134;-62
2021/03/28 03:59:50;;;;;;;40.10;23.67;;;;;;;6.16;57.86;99832.97;1826591;78;21098;-61
2021/03/28 04:02:45;;;;;;;38.05;22.30;;;;;;;6.22;57.60;99834.50;1826950;78;21130;-61
2021/03/28 04:05:33;;;;;;;39.33;22.75;;;;;;;6.27;57.32;99835.98;1827140;78;21134;-61
2021/03/28 04:08:51;;;;;;;41.73;24.30;;;;;;;6.36;57.00;99843.17;1819589;77;21150;-60
2021/03/28 04:12:02;;;;;;;38.55;23.42;;;;;;;6.43;56.71;99836.20;1827251;78;21149;-62
2021/03/28 04:14:58;;;;;;;41.50;24.50;;;;;;;6.51;56.38;99842.52;1827062;78;21110;-62
2021/03/28 04:18:09;;;;;;;41.15;24.50;;;;;;;6.61;56.02;99847.22;1826921;78;21249;-62
2021/03/28 04:21:15;;;;;;;42.17;25.00;;;;;;;6.69;55.72;99850.99;1826860;77;21150;-62
2021/03/28 04:24:16;;;;;;;43.50;25.32;;;;;;;6.79;55.51;99853.50;1826866;78;21747;-63
2021/03/28 04:27:21;;;;;;;45.50;25.52;;;;;;;6.89;55.14;99853.47;1826895;78;21134;-62
2021/03/28 04:29:51;;;;;;;41.53;23.65;;;;;;;6.99;54.82;99849.16;1820885;78;21309;-62
2021/03/28 04:32:50;;;;;;;38.05;22.77;;;;;;;7.11;54.47;99852.62;1821631;77;21134;-62
2021/03/28 04:35:35;;;;;;;40.20;23.00;;;;;;;7.22;54.11;99855.61;1820662;78;21138;-62
2021/03/28 04:38:31;;;;;;;37.20;21.80;;;;;;;7.32;53.84;99852.58;1821748;79;21288;-62
2021/03/28 04:41:20;;;;;;;39.55;23.18;;;;;;;7.44;53.45;99851.77;1821710;77;21122;-63
2021/03/28 04:43:59;;;;;;;35.55;21.62;;;;;;;7.58;53.07;99856.12;1821614;77;21269;-61
2021/03/28 04:46:54;;;;;;;34.98;21.00;;;;;;;7.79;52.56;99856.92;1821719;79;21268;-63
2021/03/28 04:50:09;;;;;;;36.53;21.42;;;;;;;8.39;51.37;99853.89;1819596;78;21284;-62
2021/03/28 04:53:23;;;;;;;36.45;21.60;;;;;;;9.24;49.43;99855.36;1819920;78;21145;-62
2021/03/28 04:56:08;;;;;;;33.02;21.30;;;;;;;10.14;47.40;99861.80;1773018;80;21138;-61
2021/03/28 04:59:12;;;;;;;37.17;22.82;;;;;;;10.96;45.64;99864.77;1820658;78;21569;-62
2021/03/28 05:02:03;;;;;;;38.25;22.87;;;;;;;11.42;44.18;99867.55;1821691;79;21281;-63
2021/03/28 05:05:10;;;;;;;38.88;24.40;;;;;;;11.83;43.18;99873.61;1821560;79;21134;-63
2021/03/28 05:07:53;;;;;;;42.58;26.80;;;;;;;12.32;42.01;99874.59;1821412;79;21297;-63
2021/03/28 05:10:32;;;;;;;39.90;24.60;;;;;;;12.94;40.68;99875.22;1821379;77;21294;-63
2021/03/28 05:13:58;;;;;;;41.33;24.63;;;;;;;13.54;39.46;99872.69;1821597;79;21123;-62
2021/03/28 05:17:06;;;;;;;41.20;25.30;;;;;;;14.24;38.51;99871.36;1821319;77;21115;-63
2021/03/28 05:19:53;;;;;;;34.40;23.38;;;;;;;15.07;37.00;99869.55;1821376;77;21139;-62
2021/03/28 05:22:50;;;;;;;40.08;24.12;;;;;;;15.83;35.33;99870.02;1796636;78;21677;-62
2021/03/28 05:25:42;;;;;;;37.15;24.02;;;;;;;16.56;34.06;99874.97;1821656;79;21312;-62
2021/03/28 05:28:53;;;;;;;39.33;22.98;;;;;;;17.23;33.03;99876.77;1822450;77;21612;-63
2021/03/28 05:31:48;;;;;;;40.50;24.95;;;;;;;17.79;31.71;99881.00;1827336;78;21297;-62
2021/03/28 05:34:36;;;;;;;34.53;22.37;;;;;;;18.50;31.32;99883.70;1796491;78;21103;-63
2021/03/28 05:37:44;;;;;;;39.38;23.42;;;;;;;19.28;29.61;99876.12;1802212;78;21122;-62
2021/03/28 05:40:39;;;;;;;35.55;23.67;;;;;;;19.15;29.63;99888.87;1827399;78;21260;-63
2021/03/28 05:43:49;;;;;;;37.10;24.52;;;;;;;19.99;28.99;99891.05;1827153;78;21240;-64
2021/03/28 05:46:43;;;;;;;40.27;25.37;;;;;;;20.90;27.65;99892.41;1827364;77;21315;-63
2021/03/28 05:49:38;;;;;;;41.48;26.37;;;;;;;21.89;26.88;99890.60;1827012;78;21113;-63
2021/03/28 05:52:47;;;;;;;43.38;26.73;;;;;;;21.89;26.88;99890.60;1827384;78;21292;-63
2021/03/28 05:55:57;;;;;;;36.90;25.95;;;;;;;22.63;25.75;99899.54;1801350;77;21134;-64
2021/03/28 05:59:18;;;;;;;36.23;25.25;;;;;;;23.03;24.93;99903.88;1827443;77;21277;-63
2021/03/28 06:02:31;;;;;;;41.05;26.30;;;;;;;23.37;24.81;99905.64;1827689;78;21277;-63
2021/03/28 06:05:21;;;;;;;47.58;26.87;;;;;;;24.25;23.71;99909.36;1826635;78;21162;-64
2021/03/28 06:08:19;;;;;;;40.03;26.97;;;;;;;24.54;23.19;99906.31;1825835;78;21122;-63
2021/03/28 06:11:37;;;;;;;40.05;25.27;;;;;;;24.76;23.13;99912.64;1827072;78;21122;-63
2021/03/28 06:14:34;;;;;;;44.10;25.90;;;;;;;25.43;22.45;99918.79;1769783;78;21138;-64
2021/03/28 06:17:26;;;;;;;44.00;28.40;;;;;;;25.68;22.03;99917.47;1827056;77;21252;-63
2021/03/28 06:20:37;;;;;;;43.63;27.95;;;;;;;25.73;21.62;99919.48;1827318;78;21096;-63
2021/03/28 06:23:34;;;;;;;43.90;25.45;;;;;;;25.57;21.66;99915.68;1825821;78;21257;-62
2021/03/28 06:26:10;;;;;;;40.95;26.30;;;;;;;25.67;21.82;99911.79;1827324;78;21300;-65
2021/03/28 06:29:28;;;;;;;45.00;26.15;;;;;;;25.59;21.36;99907.20;1827018;78;21098;-64
2021/03/28 06:32:34;;;;;;;47.55;26.27;;;;;;;24.86;22.20;99906.61;1827297;78;21138;-63
2021/03/28 06:35:35;;;;;;;58.28;27.10;;;;;;;24.79;22.37;99902.44;1827352;78;21075;-63
2021/03/28 06:38:46;;;;;;;47.93;24.37;;;;;;;24.96;22.14;99907.15;1825405;78;21664;-62
2021/03/28 06:41:25;;;;;;;45.70;25.02;;;;;;;24.89;22.36;99909.15;1827475;77;21300;-64
2021/03/28 06:44:22;;;;;;;40.65;24.87;;;;;;;25.55;21.66;99899.00;1777706;78;21255;-64
2021/03/28 06:47:07;;;;;;;45.90;23.87;;;;;;;25.95;21.20;99894.92;1827197;78;21154;-64
2021/03/28 06:50:02;;;;;;;40.15;24.35;;;;;;;26.14;20.84;99899.07;1827270;78;21122;-64
2021/03/28 06:52:54;;;;;;;44.20;23.62;;;;;;;25.74;21.50;99901.37;1827375;78;21719;-63
2021/03/28 06:55:45;;;;;;;42.55;25.05;;;;;;;26.22;20.94;99901.42;1827184;78;21264;-62
2021/03/28 06:58:43;;;;;;;39.70;21.95;;;;;;;26.68;20.51;99903.14;1826817;77;21146;-63
2021/03/28 07:01:57;;;;;;;45.23;25.77;;;;;;;26.93;20.08;99899.50;1827153;77;21134;-65
2021/03/28 07:04:38;;;;;;;38.58;23.25;;;;;;;26.47;20.32;99904.84;1826569;77;21127;-65
2021/03/28 07:07:39;;;;;;;42.27;23.70;;;;;;;25.95;21.03;99901.09;1827271;77;21150;-63
2021/03/28 07:10:42;;;;;;;33.88;23.38;;;;;;;25.91;20.86;99890.68;1796599;78;21269;-63
2021/03/28 07:13:46;;;;;;;;;;;;;;;26.02;20.88;99892.45;1820684;78;21099;-63
2021/03/28 07:16:30;;;;;;;38.70;23.05;;;;;;;26.50;20.57;99895.45;1827465;78;20138;-65
2021/03/28 07:19:46;;;;;;;32.80;21.10;;;;;;;26.95;20.25;99893.22;1827703;77;21529;-65
2021/03/28 07:22:57;;;;;;;33.42;22.48;;;;;;;27.42;19.75;99889.02;1779031;78;21150;-65
2021/03/28 07:25:48;;;;;;;31.02;21.73;;;;;;;28.04;19.68;99902.24;1827474;78;21280;-63
2021/03/28 07:28:42;;;;;;;;;;;;;;;28.95;18.35;99902.75;1776861;78;21581;-64
2021/03/28 07:31:37;;;;;;;29.37;18.42;;;;;;;27.49;18.96;99901.09;1836329;77;20135;-64
2021/03/28 07:34:41;;;;;;;29.07;18.12;;;;;;;25.67;20.31;99877.85;1827511;78;21521;-65
2021/03/28 07:38:00;;;;;;;32.90;19.07;;;;;;;24.89;21.06;99886.23;1826924;78;21276;-64
2021/03/28 07:40:49;;;;;;;32.78;18.92;;;;;;;24.18;21.93;99885.39;1827317;78;21127;-64
2021/03/28 07:44:08;;;;;;;27.02;17.30;;;;;;;25.06;21.42;99882.16;1827452;78;21146;-65
2021/03/28 07:51:13;;;;;;;24.80;15.80;;;;;;;27.35;19.48;99882.29;1834943;77;22137;-65
2021/03/28 07:54:38;;;;;;;25.05;16.20;;;;;;;27.04;19.20;99871.61;1793541;80;21135;-64
2021/03/28 07:57:33;;;;;;;25.17;16.65;;;;;;;26.36;19.81;99879.27;1793716;80;21127;-64
2021/03/28 08:00:22;;;;;;;23.70;16.48;;;;;;;26.44;19.73;99869.23;1793328;80;21150;-63
2021/03/28 08:03:13;;;;;;;23.92;16.05;;;;;;;26.53;19.72;99880.78;1793449;79;21301;-65
2021/03/28 08:06:14;;;;;;;24.40;16.23;;;;;;;26.02;19.92;99856.73;1793744;80;21131;-65
2021/03/28 08:08:59;;;;;;;24.27;16.65;;;;;;;26.03;20.01;99871.70;1793577;79;21280;-64
2021/03/28 08:11:57;;;;;;;23.42;15.63;;;;;;;26.22;20.02;99881.58;1792835;78;21264;-65
2021/03/28 08:14:41;;;;;;;25.32;16.75;;;;;;;26.50;19.70;99878.70;1792446;79;21181;-65
2021/03/28 08:17:26;;;;;;;22.98;16.02;;;;;;;26.81;19.43;99873.91;1792779;80;21162;-63
2021/03/28 08:20:36;;;;;;;25.88;15.63;;;;;;;25.65;19.84;99877.08;1793486;79;21138;-65
2021/03/28 08:23:30;;;;;;;23.12;15.90;;;;;;;25.02;20.45;99868.20;1793129;80;21249;-63
2021/03/28 08:26:28;;;;;;;22.15;15.72;;;;;;;24.74;20.76;99862.98;1793750;78;21253;-65
2021/03/28 08:29:23;;;;;;;24.77;16.27;;;;;;;24.80;20.83;99865.88;1769050;79;21151;-66
2021/03/28 08:32:13;;;;;;;19.90;15.83;;;;;;;24.91;20.73;99859.33;1793334;79;21260;-65
2021/03/28 08:34:45;;;;;;;;;;;;;;;24.91;20.83;99852.73;1795997;80;21221;-64
2021/03/28 08:37:40;;;;;;;23.27;13.95;;;;;;;24.07;20.92;99861.98;1793681;78;20224;-64
2021/03/28 08:41:05;;;;;;;21.52;14.90;;;;;;;22.32;22.64;99823.97;1793616;78;21296;-65
2021/03/28 08:44:23;;;;;;;21.40;15.00;;;;;;;20.85;24.54;99844.39;1793807;80;21544;-65
2021/03/28 08:47:21;;;;;;;21.73;15.60;;;;;;;20.73;24.81;99855.48;1793779;80;21166;-64
2021/03/28 08:50:27;;;;;;;22.00;15.30;;;;;;;20.15;25.54;99827.08;1785683;79;21328;-64
2021/03/28 08:53:06;;;;;;;24.02;15.28;;;;;;;19.48;26.17;99837.06;1779699;80;21193;-65
2021/03/28 08:56:28;;;;;;;22.60;15.48;;;;;;;18.96;27.13;99846.32;1780070;80;21147;-65
2021/03/28 08:59:19;;;;;;;22.25;15.08;;;;;;;19.03;27.26;99830.11;1779800;80;21284;-64
2021/03/28 09:02:19;;;;;;;23.62;15.85;;;;;;;19.08;27.00;99824.39;1779589;81;21150;-63
2021/03/28 09:05:17;;;;;;;23.02;14.70;;;;;;;19.14;26.86;99837.42;1779547;80;21151;-65
2021/03/28 09:08:20;;;;;;;23.95;15.72;;;;;;;19.33;26.70;99822.84;1779571;79;21280;-65
2021/03/28 09:11:44;;;;;;;25.20;17.20;;;;;;;18.04;28.16;99825.16;1766862;81;21131;-65
2021/03/28 09:14:25;;;;;;;;;;;;;;;18.04;28.16;99825.16;1782111;81;21570;-64
2021/03/28 09:17:08;;;;;;;23.70;15.58;;;;;;;17.58;29.06;99834.92;1779491;79;20388;-64
2021/03/28 09:20:16;;;;;;;22.75;15.55;;;;;;;17.16;29.86;99817.64;1727361;80;21629;-66
2021/03/28 09:23:06;;;;;;;27.07;16.80;;;;;;;17.04;30.13;99821.57;1778995;80;21127;-64
2021/03/28 09:26:03;;;;;;;26.17;17.17;;;;;;;16.92;30.49;99805.53;1779535;79;21175;-63
2021/03/28 09:29:06;;;;;;;23.55;15.93;;;;;;;16.83;30.71;99801.17;1779208;80;21265;-65
2021/03/28 09:32:00;;;;;;;23.98;15.35;;;;;;;16.80;30.71;99822.48;1779017;80;21162;-65
2021/03/28 09:35:02;;;;;;;24.52;16.73;;;;;;;16.43;31.46;99808.09;1779332;80;21265;-65
2021/03/28 09:37:45;;;;;;;;;;;;;;;16.05;32.12;99802.39;1782181;81;21104;-65
2021/03/28 09:40:49;;;;;;;25.15;15.98;;;;;;;15.91;32.27;99801.50;1760317;80;20157;-64
2021/03/28 09:43:42;;;;;;;27.90;17.02;;;;;;;15.80;32.54;99806.69;1779431;81;21123;-64
2021/03/28 09:46:20;;;;;;;29.60;16.82;;;;;;;15.56;33.20;99806.11;1779534;81;21163;-64
2021/03/28 09:49:29;;;;;;;28.38;17.02;;;;;;;15.60;33.15;99793.56;1779380;79;21167;-64
2021/03/28 09:52:23;;;;;;;29.70;17.67;;;;;;;15.59;33.10;99789.20;1779592;81;21126;-64
2021/03/28 09:55:35;;;;;;;29.37;17.92;;;;;;;15.47;33.38;99795.66;1779290;80;21143;-64
2021/03/28 09:58:37;;;;;;;24.72;17.15;;;;;;;15.44;33.36;99799.55;1779341;80;21233;-64
2021/03/28 10:01:40;;;;;;;35.43;18.82;;;;;;;15.54;33.25;99802.19;1779578;81;21269;-65
2021/03/28 10:04:25;;;;;;;30.57;19.10;;;;;;;15.55;33.46;99786.17;1779524;79;21159;-64
2021/03/28 10:07:01;;;;;;;32.05;18.75;;;;;;;15.57;33.65;99776.61;1779518;80;21622;-64
2021/03/28 10:09:39;;;;;;;24.65;16.75;;;;;;;15.61;33.50;99783.14;1778978;80;21284;-64
2021/03/28 10:12:24;;;;;;;29.80;15.72;;;;;;;15.65;33.51;99781.44;1769602;80;21355;-65
2021/03/28 10:15:21;;;;;;;26.90;16.93;;;;;;;15.70;33.76;99782.36;1779208;79;21289;-64
2021/03/28 10:18:45;;;;;;;26.17;16.23;;;;;;;15.66;33.73;99779.27;1792181;80;21116;-65
2021/03/28 10:22:00;;;;;;;24.98;17.32;;;;;;;15.73;33.64;99778.45;1779198;80;21589;-64
2021/03/28 10:25:04;;;;;;;27.35;15.85;;;;;;;15.78;33.75;99775.44;1779391;81;21135;-63
2021/03/28 10:28:14;;;;;;;27.07;16.02;;;;;;;15.78;33.72;99785.84;1779088;80;21103;-65
2021/03/28 10:31:00;;;;;;;26.42;17.48;;;;;;;15.23;34.66;99768.67;1778711;80;21573;-65
2021/03/28 10:34:13;;;;;;;23.18;16.30;;;;;;;15.07;35.16;99763.83;1779250;80;21257;-65
2021/03/28 10:37:13;;;;;;;30.77;18.17;;;;;;;15.14;35.10;99764.75;1779259;79;21305;-63
2021/03/28 10:40:16;;;;;;;31.52;18.07;;;;;;;15.35;34.87;99760.94;1779276;79;21135;-64
2021/03/28 10:43:04;;;;;;;24.52;17.50;;;;;;;15.16;35.37;99778.59;1779586;81;21147;-63
2021/03/28 10:45:49;;;;;;;27.45;16.97;;;;;;;14.94;35.55;99759.43;1778890;79;21293;-64
2021/03/28 10:49:12;;;;;;;28.40;17.23;;;;;;;14.83;36.12;99729.89;1779402;80;21273;-64
2021/03/28 10:51:49;;;;;;;26.48;16.93;;;;;;;14.89;36.20;99759.39;1779452;81;21136;-64
2021/03/28 10:54:31;;;;;;;29.75;19.73;;;;;;;14.72;36.30;99764.47;1778915;80;21169;-64
2021/03/28 10:57:27;;;;;;;32.65;18.52;;;;;;;14.64;36.84;99734.97;1779491;80;21356;-63
2021/03/28 11:00:29;;;;;;;27.40;17.57;;;;;;;14.90;36.41;99726.03;1779081;81;21171;-64
2021/03/28 11:03:12;;;;;;;29.60;17.77;;;;;;;15.14;36.28;99747.84;1778536;80;21139;-64
2021/03/28 11:06:27;;;;;;;28.73;18.73;;;;;;;15.30;35.79;99732.73;1779203;81;21159;-65
2021/03/28 11:09:06;;;;;;;30.17;18.92;;;;;;;15.12;36.21;99741.77;1742119;80;21139;-64
2021/03/28 11:11:52;;;;;;;24.98;17.05;;;;;;;15.15;36.23;99728.34;1779350;81;21561;-64
2021/03/28 11:14:31;;;;;;;32.53;20.88;;;;;;;14.97;36.74;99736.91;1747972;80;21147;-64
2021/03/28 11:17:43;;;;;;;29.02;19.62;;;;;;;15.02;37.00;99726.98;1779151;81;21281;-64
2021/03/28 11:20:34;;;;;;;36.10;20.82;;;;;;;15.25;36.92;99729.25;1779210;80;21135;-64
2021/03/28 11:23:29;;;;;;;28.85;18.37;;;;;;;15.49;36.76;99739.30;1779513;81;21235;-64
2021/03/28 11:26:24;;;;;;;28.35;18.45;;;;;;;15.80;36.23;99737.28;1889922;76;22160;-64
2021/03/28 11:29:15;;;;;;;30.72;19.67;;;;;;;15.93;36.09;99703.47;1858431;77;21260;-64
2021/03/28 11:32:25;;;;;;;27.50;19.25;;;;;;;15.96;35.89;99719.94;1790727;80;21169;-65
2021/03/28 11:35:07;;;;;;;27.37;18.90;;;;;;;16.03;35.77;99726.04;1824099;78;21590;-64
2021/03/28 11:37:55;;;;;;;33.20;19.87;;;;;;;16.10;35.61;99732.96;1789406;80;21133;-64
2021/03/28 11:40:34;;;;;;;31.20;19.27;;;;;;;16.24;35.51;99720.83;1787552;80;21114;-64
2021/03/28 11:43:14;;;;;;;29.57;20.37;;;;;;;16.23;35.68;99703.48;1791752;80;21164;-64
2021/03/28 11:45:48;;;;;;;30.45;19.60;;;;;;;16.24;35.60;99726.04;1791772;80;21292;-64
2021/03/28 11:48:32;;;;;;;30.50;19.00;;;;;;;16.39;35.11;99719.10;1787788;80;21142;-64
2021/03/28 11:51:38;;;;;;;26.77;18.07;;;;;;;16.52;34.89;99717.36;1791721;80;21141;-64
2021/03/28 11:54:24;;;;;;;30.20;19.40;;;;;;;16.65;34.69;99721.23;1791786;80;21165;-64
2021/03/28 11:57:06;;;;;;;28.38;18.52;;;;;;;16.87;34.27;99714.28;1791664;80;21308;-64
2021/03/28 11:59:41;;;;;;;31.30;20.43;;;;;;;17.03;33.98;99713.79;1791738;80;21137;-64
2021/03/28 12:02:20;;;;;;;38.30;21.07;;;;;;;17.05;33.82;99720.31;1791686;80;21315;-64
2021/03/28 12:04:59;;;;;;;29.07;19.67;;;;;;;17.01;33.78;99710.31;1791401;80;21142;-64
2021/03/28 12:07:38;;;;;;;26.87;18.20;;;;;;;16.90;33.95;99714.70;1733680;80;21272;-64
2021/03/28 12:10:14;;;;;;;29.42;18.15;;;;;;;16.87;34.14;99714.72;1791388;80;21205;-64
2021/03/28 12:12:50;;;;;;;29.70;18.10;;;;;;;16.85;34.02;99708.20;1791736;80;21308;-65
2021/03/28 12:15:46;;;;;;;34.20;20.43;;;;;;;16.77;34.14;99705.16;1791661;80;21319;-65
2021/03/28 12:18:28;;;;;;;27.90;18.48;;;;;;;16.56;34.54;99702.98;1791689;80;21280;-64
2021/03/28 12:21:09;;;;;;;27.25;18.95;;;;;;;16.40;34.69;99699.98;1791866;80;21327;-65
2021/03/28 12:23:56;;;;;;;29.45;19.67;;;;;;;16.26;35.07;99693.05;1791723;80;21300;-65
2021/03/28 12:26:38;;;;;;;35.95;20.57;;;;;;;16.10;35.38;99690.00;1750035;82;21148;-64
2021/03/28 12:29:17;;;;;;;28.38;19.60;;;;;;;15.90;35.77;99691.72;1819435;79;21273;-64
2021/03/28 12:31:50;;;;;;;28.47;20.32;;;;;;;15.62;36.22;99690.34;1812780;79;21275;-64
2021/03/28 12:34:26;;;;;;;31.60;19.55;;;;;;;15.51;36.55;99694.66;1819132;79;21161;-64
2021/03/28 12:37:12;;;;;;;31.68;19.67;;;;;;;15.43;36.82;99680.77;1818665;79;21130;-64
2021/03/28 12:39:48;;;;;;;29.98;19.17;;;;;;;15.35;36.90;99688.11;1818565;79;21130;-64
2021/03/28 12:42:42;;;;;;;29.77;19.87;;;;;;;15.29;37.12;99685.50;1818731;79;21137;-64
2021/03/28 12:45:19;;;;;;;31.60;21.25;;;;;;;15.22;37.25;99685.05;1818815;79;21138;-64
2021/03/28 12:47:56;;;;;;;34.63;21.68;;;;;;;15.17;37.50;99680.26;1818528;79;21123;-64
2021/03/28 12:50:36;;;;;;;31.70;20.20;;;;;;;15.09;37.81;99680.66;1818396;78;21171;-64
2021/03/28 12:53:19;;;;;;;36.77;20.40;;;;;;;15.05;37.85;99681.50;1818657;78;21137;-64
2021/03/28 12:55:51;;;;;;;35.58;21.48;;;;;;;15.04;38.10;99684.54;1814003;79;21157;-64
2021/03/28 12:58:26;;;;;;;34.25;21.50;;;;;;;14.95;38.78;99685.34;1818599;79;21557;-64
2021/03/28 13:01:02;;;;;;;35.55;21.10;;;;;;;14.82;39.59;99677.05;1817217;79;21141;-64
2021/03/28 13:03:45;;;;;;;31.25;19.00;;;;;;;14.26;41.02;99686.63;1818360;79;21881;-64
2021/03/28 13:06:38;;;;;;;34.30;22.93;;;;;;;13.86;41.89;99682.38;1818732;79;21220;-64
2021/03/28 13:09:19;;;;;;;36.42;23.55;;;;;;;13.62;43.71;99689.08;1818522;79;21111;-64
2021/03/28 13:11:59;;;;;;;31.93;21.40;;;;;;;13.38;44.28;99679.73;1818579;79;21118;-64
2021/03/28 13:14:41;;;;;;;35.35;21.25;;;;;;;13.34;44.03;99678.84;1815684;78;21134;-64
2021/03/28 13:17:28;;;;;;;35.45;22.82;;;;;;;13.45;44.13;99668.58;1818466;79;21130;-64
2021/03/28 13:20:17;;;;;;;33.25;21.97;;;;;;;13.53;43.50;99665.63;1818704;79;21156;-64
2021/03/28 13:22:48;;;;;;;36.75;21.30;;;;;;;13.66;43.70;99670.11;1818506;79;21323;-65